Time;durP1;ratioP1;P1;durP2;ratioP2;P2;SDS_P1;SDS_P2;PMS_P1;PMS_P2;Temp;Humidity;BMP_temperature;BMP_pressure;BME280_temperature;BME280_humidity;BME280_pressure;Samples;Min_cycle;Max_cycle;Signal;HPM_P1;HPM_P2
2022/04/17 00:00:38;;;;;;;13.73;10.67;;;;;;;4.42;67.84;102581.25;5009238;28;20203;-68
2022/04/17 00:03:06;;;;;;;11.17;9.80;;;;;;;4.39;68.50;102581.28;5009868;28;20206;-70
2022/04/17 00:05:35;;;;;;;14.87;10.47;;;;;;;4.36;68.63;102583.03;5009066;28;20203;-70
2022/04/17 00:08:02;;;;;;;15.07;10.60;;;;;;;4.33;68.60;102578.66;5009851;28;20223;-69
2022/04/17 00:10:28;;;;;;;13.57;11.60;;;;;;;4.30;68.75;102572.56;5008055;28;20221;-69
2022/04/17 00:12:55;;;;;;;16.37;11.57;;;;;;;4.29;68.79;102560.25;4999447;28;20210;-70
2022/04/17 00:15:21;;;;;;;20.03;13.53;;;;;;;4.27;68.79;102556.75;5009462;28;20245;-69
2022/04/17 00:17:48;;;;;;;24.30;15.20;;;;;;;4.25;68.89;102563.78;5008911;28;20231;-69
2022/04/17 00:20:16;;;;;;;19.67;14.77;;;;;;;4.22;69.65;102561.16;5009209;28;20210;-69
2022/04/17 00:22:44;;;;;;;18.63;14.33;;;;;;;4.21;69.96;102552.38;5009086;28;20207;-69
2022/04/17 00:25:11;;;;;;;21.50;14.93;;;;;;;4.19;69.63;102555.03;5008865;28;20584;-70
2022/04/17 00:27:38;;;;;;;17.40;14.10;;;;;;;4.18;69.79;102549.75;5009059;28;20205;-69
2022/04/17 00:30:06;;;;;;;20.70;14.60;;;;;;;4.17;69.71;102555.91;5009163;28;20199;-68
2022/04/17 00:32:33;;;;;;;23.93;15.70;;;;;;;4.14;69.79;102548.91;4996491;28;20295;-69
2022/04/17 00:35:00;;;;;;;19.23;15.50;;;;;;;4.12;69.60;102548.03;5002107;28;20227;-69
2022/04/17 00:37:26;;;;;;;24.03;16.77;;;;;;;4.10;69.89;102541.03;5013800;28;20380;-69
2022/04/17 00:39:54;;;;;;;20.60;14.33;;;;;;;4.09;69.53;102537.53;5004018;28;20238;-69
2022/04/17 00:42:21;;;;;;;17.97;13.63;;;;;;;4.06;70.18;102541.94;5002591;28;20647;-69
2022/04/17 00:44:47;;;;;;;20.50;14.20;;;;;;;4.04;69.88;102541.94;4999739;28;20824;-70
2022/04/17 00:47:15;;;;;;;18.03;13.10;;;;;;;4.04;70.82;102544.59;5000700;28;20207;-69
2022/04/17 00:49:42;;;;;;;19.97;13.90;;;;;;;4.04;70.10;102543.72;5004620;28;20330;-71
2022/04/17 00:52:09;;;;;;;15.47;12.50;;;;;;;4.01;70.03;102549.88;4998044;28;20233;-69
2022/04/17 00:54:38;;;;;;;15.57;12.33;;;;;;;3.97;70.46;102541.97;4995870;28;20218;-68
2022/04/17 00:57:08;;;;;;;15.40;12.30;;;;;;;3.91;70.73;102544.69;5007199;28;20223;-69
2022/04/17 00:59:34;;;;;;;18.47;12.03;;;;;;;3.89;70.34;102546.44;4999901;28;20235;-69
2022/04/17 01:02:01;;;;;;;17.40;12.27;;;;;;;3.86;70.54;102538.53;4996347;28;20325;-69
2022/04/17 01:04:28;;;;;;;17.10;13.33;;;;;;;3.84;70.84;102538.53;5000219;28;20212;-70
2022/04/17 01:06:54;;;;;;;16.90;12.37;;;;;;;3.80;70.89;102532.41;5000837;28;20276;-69
2022/04/17 01:09:21;;;;;;;19.30;12.37;;;;;;;3.76;70.86;102521.91;4997858;28;20235;-69
2022/04/17 01:11:48;;;;;;;14.97;12.80;;;;;;;3.72;71.81;102517.53;4999713;28;20413;-69
2022/04/17 01:14:16;;;;;;;18.93;14.00;;;;;;;3.67;71.79;102514.03;5005763;28;20211;-69
2022/04/17 01:16:43;;;;;;;18.60;14.20;;;;;;;3.60;71.86;102515.81;5004281;28;20238;-69
2022/04/17 01:19:12;;;;;;;23.30;15.67;;;;;;;3.56;71.63;102513.22;5006535;28;20226;-69
2022/04/17 01:21:41;;;;;;;23.13;15.93;;;;;;;3.49;71.42;102509.75;5008263;28;20203;-69
2022/04/17 01:26:57;;;;;;;20.10;12.97;;;;;;;3.38;71.78;102516.81;5008493;28;20684;-69
2022/04/17 01:29:25;;;;;;;18.50;12.77;;;;;;;3.30;72.15;102519.47;4998998;28;20245;-68
2022/04/17 01:31:52;;;;;;;20.90;13.50;;;;;;;3.26;72.10;102512.47;4989270;28;20246;-69
2022/04/17 01:34:19;;;;;;;21.20;14.57;;;;;;;3.24;72.80;102519.47;5002934;28;20195;-69
2022/04/17 01:36:49;;;;;;;21.57;14.00;;;;;;;3.21;72.84;102516.88;5008412;28;20502;-69
2022/04/17 01:39:15;;;;;;;16.97;12.60;;;;;;;3.21;73.21;102526.53;5006968;28;20227;-67
2022/04/17 01:41:42;;;;;;;15.23;11.57;;;;;;;3.22;73.18;102515.13;4996577;28;20226;-70
2022/04/17 01:44:09;;;;;;;16.27;11.87;;;;;;;3.22;72.96;102518.63;4997163;28;20204;-69
2022/04/17 01:46:36;;;;;;;14.77;10.70;;;;;;;3.24;73.52;102524.75;5008085;28;20785;-68
2022/04/17 01:49:03;;;;;;;13.73;10.77;;;;;;;3.24;73.22;102522.13;5003298;28;20430;-69
2022/04/17 01:51:34;;;;;;;14.03;11.17;;;;;;;3.24;73.36;102519.47;5006542;28;20626;-68
2022/04/17 01:54:03;;;;;;;16.33;11.73;;;;;;;3.22;73.70;102513.38;5007887;28;20342;-68
2022/04/17 01:56:29;;;;;;;13.47;11.03;;;;;;;3.21;73.37;102511.63;4998265;28;20470;-69
2022/04/17 01:58:56;;;;;;;17.63;11.20;;;;;;;3.20;73.35;102509.00;4997933;28;20230;-69
2022/04/17 02:01:22;;;;;;;12.03;10.40;;;;;;;3.19;73.75;102508.13;5000210;28;20605;-69
2022/04/17 02:03:49;;;;;;;13.97;10.77;;;;;;;3.17;73.07;102503.72;4996895;28;20211;-69
2022/04/17 02:06:15;;;;;;;12.63;10.43;;;;;;;3.11;73.63;102504.63;5004029;28;20290;-70
2022/04/17 02:08:42;;;;;;;13.83;10.17;;;;;;;3.07;72.77;102502.88;5008534;28;20238;-69
2022/04/17 02:11:10;;;;;;;13.20;10.83;;;;;;;3.02;72.64;102502.91;5005129;28;20209;-69
2022/04/17 02:13:36;;;;;;;14.20;10.50;;;;;;;2.95;72.77;102495.00;5011623;28;20738;-69
2022/04/17 02:16:03;;;;;;;14.47;10.33;;;;;;;2.88;72.43;102496.78;5011913;28;20225;-71
2022/04/17 02:18:30;;;;;;;16.03;11.13;;;;;;;2.82;73.15;102486.28;5011169;28;20241;-69
2022/04/17 02:20:56;;;;;;;15.23;11.33;;;;;;;2.78;72.67;102488.03;5011437;28;20218;-69
2022/04/17 02:23:22;;;;;;;17.67;11.50;;;;;;;2.76;73.11;102481.00;5000066;28;20567;-70
2022/04/17 02:25:49;;;;;;;18.53;12.87;;;;;;;2.75;73.00;102477.50;5006498;28;20211;-69
2022/04/17 02:28:17;;;;;;;17.40;12.23;;;;;;;2.73;73.76;102476.63;5004805;28;20223;-69
2022/04/17 02:30:44;;;;;;;14.97;12.17;;;;;;;2.73;73.39;102466.09;4997015;28;20211;-69
2022/04/17 02:33:11;;;;;;;17.73;11.73;;;;;;;2.71;74.29;102473.13;4993881;28;20203;-69
2022/04/17 02:35:38;;;;;;;17.57;11.30;;;;;;;2.71;74.62;102467.88;5004054;28;20742;-69
2022/04/17 02:38:04;;;;;;;17.90;12.53;;;;;;;2.72;74.42;102480.13;5009381;28;20579;-69
2022/04/17 02:40:31;;;;;;;15.83;11.57;;;;;;;2.67;73.66;102470.53;5010870;28;20272;-68
2022/04/17 02:42:59;;;;;;;14.27;10.00;;;;;;;2.59;73.68;102473.16;5010602;28;20228;-69
2022/04/17 02:45:27;;;;;;;15.57;10.60;;;;;;;2.50;73.51;102467.03;5010725;28;20203;-68
2022/04/17 02:50:23;;;;;;;14.13;10.77;;;;;;;2.41;74.57;102473.19;5004919;28;20215;-71
2022/04/17 02:52:54;;;;;;;16.10;11.73;;;;;;;2.38;74.44;102474.03;5004601;28;20262;-71
2022/04/17 02:55:20;;;;;;;16.97;11.17;;;;;;;2.36;74.36;102467.03;5010304;28;20435;-72
2022/04/17 02:57:48;;;;;;;14.30;11.53;;;;;;;2.37;74.61;102471.41;5009761;28;20239;-71
2022/04/17 03:00:15;;;;;;;18.53;11.77;;;;;;;2.36;74.97;102467.03;5010726;28;20257;-71
2022/04/17 03:05:38;;;;;;;15.33;11.00;;;;;;;2.29;75.34;102465.31;5009629;28;20205;-71
2022/04/17 03:08:06;;;;;;;15.10;11.47;;;;;;;2.26;74.77;102467.94;5010471;28;20214;-71
2022/04/17 03:10:33;;;;;;;15.13;11.67;;;;;;;2.24;75.42;102469.69;5009911;28;20199;-72
2022/04/17 03:12:59;;;;;;;14.10;11.23;;;;;;;2.21;75.06;102464.41;5009595;28;20206;-71
2022/04/17 03:15:26;;;;;;;15.77;11.57;;;;;;;2.19;75.81;102464.41;5009952;28;20730;-72
2022/04/17 03:17:54;;;;;;;14.30;11.00;;;;;;;2.18;75.26;102460.03;5007100;28;20259;-71
2022/04/17 03:20:21;;;;;;;15.23;11.33;;;;;;;2.19;76.06;102458.28;4998599;28;20199;-71
2022/04/17 03:22:48;;;;;;;15.43;11.90;;;;;;;2.18;75.65;102456.53;5009450;28;20206;-70
2022/04/17 03:25:15;;;;;;;15.50;11.93;;;;;;;2.19;76.37;102450.38;4993555;28;20213;-72
2022/04/17 03:27:43;;;;;;;18.73;13.13;;;;;;;2.18;76.52;102453.91;5009528;28;20221;-72
2022/04/17 03:30:10;;;;;;;17.63;12.37;;;;;;;2.17;76.31;102452.13;5009697;28;20223;-70
2022/04/17 03:32:37;;;;;;;17.43;12.73;;;;;;;2.17;76.15;102446.88;5009884;28;20691;-70
2022/04/17 03:35:06;;;;;;;16.70;12.93;;;;;;;2.15;76.16;102443.41;5009055;28;20203;-71
2022/04/17 03:37:32;;;;;;;18.77;12.70;;;;;;;2.13;76.64;102437.28;5008673;28;20233;-71
2022/04/17 03:39:59;;;;;;;17.00;12.50;;;;;;;2.12;76.26;102435.50;5010037;28;20223;-71
2022/04/17 03:42:26;;;;;;;17.47;11.30;;;;;;;2.07;76.63;102423.25;5009654;28;20210;-71
2022/04/17 03:44:53;;;;;;;14.90;11.13;;;;;;;2.05;76.53;102427.63;5009097;28;20203;-71
2022/04/17 03:47:19;;;;;;;15.50;9.97;;;;;;;1.97;76.34;102425.88;5009357;28;20261;-71
2022/04/17 03:49:46;;;;;;;14.97;10.67;;;;;;;1.86;76.31;102424.97;5009111;28;20395;-71
2022/04/17 03:52:14;;;;;;;14.37;10.47;;;;;;;1.77;76.44;102425.88;5009403;28;20207;-71
2022/04/17 03:54:40;;;;;;;17.77;10.80;;;;;;;1.71;76.54;102437.22;5008661;28;20207;-71
2022/04/17 03:57:07;;;;;;;15.03;11.13;;;;;;;1.69;76.49;102432.84;5009092;28;20329;-71
2022/04/17 03:59:34;;;;;;;13.37;10.57;;;;;;;1.67;76.89;102431.97;5009843;28;20227;-71
2022/04/17 04:02:01;;;;;;;16.03;11.27;;;;;;;1.66;77.36;102422.31;5009543;28;20290;-70
2022/04/17 04:04:27;;;;;;;14.97;10.70;;;;;;;1.65;77.22;102420.56;5007064;28;20254;-71
2022/04/17 04:06:54;;;;;;;14.70;10.60;;;;;;;1.63;77.43;102419.69;4989534;28;20685;-72
2022/04/17 04:09:22;;;;;;;15.30;10.73;;;;;;;1.58;77.13;102419.72;4991468;28;20232;-71
2022/04/17 04:11:49;;;;;;;13.37;11.00;;;;;;;1.54;76.99;102436.31;5008638;28;20584;-70
2022/04/17 04:14:15;;;;;;;14.20;10.47;;;;;;;1.48;77.58;102431.03;5009203;28;20199;-71
2022/04/17 04:16:42;;;;;;;11.03;9.07;;;;;;;1.41;77.51;102431.03;4990297;28;20536;-71
2022/04/17 04:19:10;;;;;;;15.30;10.53;;;;;;;1.36;77.66;102423.16;4989309;28;20232;-71
2022/04/17 04:21:47;;;;;;;12.33;10.67;;;;;;;1.33;78.02;102420.50;5008335;28;20739;-71
2022/04/17 04:24:14;;;;;;;13.50;10.07;;;;;;;1.31;77.79;102411.75;5008115;28;20699;-72
2022/04/17 04:26:42;;;;;;;13.53;10.43;;;;;;;1.31;77.98;102417.88;4993555;28;20321;-71
2022/04/17 04:29:08;;;;;;;15.07;10.77;;;;;;;1.31;77.99;102403.88;4991417;28;20638;-71
2022/04/17 04:31:35;;;;;;;18.63;11.60;;;;;;;1.30;78.13;102404.75;5000292;28;20207;-71
2022/04/17 04:34:02;;;;;;;13.40;9.87;;;;;;;1.31;78.50;102404.75;5008548;28;20256;-71
2022/04/17 04:36:29;;;;;;;14.93;10.40;;;;;;;1.31;78.48;102404.75;4996987;28;20696;-71
2022/04/17 04:38:55;;;;;;;15.00;10.47;;;;;;;1.32;78.72;102401.25;4989200;28;20239;-71
2022/04/17 04:41:22;;;;;;;14.43;9.60;;;;;;;1.32;79.00;102398.63;4989171;28;20230;-71
2022/04/17 04:43:50;;;;;;;12.57;9.70;;;;;;;1.32;78.81;102393.38;4998385;28;20257;-71
2022/04/17 04:46:17;;;;;;;14.33;10.17;;;;;;;1.30;78.63;102397.75;5007993;28;20206;-71
2022/04/17 04:51:29;;;;;;;16.33;10.13;;;;;;;1.32;78.91;102401.25;5008462;28;20209;-70
2022/04/17 04:53:57;;;;;;;11.40;8.77;;;;;;;1.31;79.03;102403.88;5012151;28;20216;-71
2022/04/17 04:56:24;;;;;;;12.73;9.13;;;;;;;1.30;78.99;102405.63;5007419;28;20280;-71
2022/04/17 04:58:52;;;;;;;13.37;9.40;;;;;;;1.27;79.16;102400.34;5008248;28;20223;-71
2022/04/17 05:01:19;;;;;;;12.37;9.20;;;;;;;1.25;78.99;102399.50;5005101;28;20216;-71
2022/04/17 05:03:46;;;;;;;12.83;9.87;;;;;;;1.23;79.10;102395.13;5003568;28;20214;-71
2022/04/17 05:06:12;;;;;;;15.03;9.43;;;;;;;1.24;79.54;102402.13;4988956;28;20203;-72
2022/04/17 05:08:39;;;;;;;12.20;9.53;;;;;;;1.25;79.48;102399.50;5008038;28;20233;-71
2022/04/17 05:11:05;;;;;;;13.30;10.33;;;;;;;1.28;79.75;102401.22;5007749;28;20761;-71
2022/04/17 05:13:32;;;;;;;12.57;9.90;;;;;;;1.33;79.92;102407.38;5008479;28;20214;-70
2022/04/17 05:15:59;;;;;;;12.97;10.10;;;;;;;1.37;80.26;102404.78;5007875;28;20688;-71
2022/04/17 05:18:26;;;;;;;14.53;9.27;;;;;;;1.42;80.32;102399.56;4995959;28;20319;-71
2022/04/17 05:20:53;;;;;;;14.77;10.47;;;;;;;1.48;80.42;102403.91;5005513;28;20202;-71
2022/04/17 05:23:22;;;;;;;12.07;8.93;;;;;;;1.55;80.35;102408.31;4994135;28;20640;-71
2022/04/17 05:25:53;;;;;;;13.27;9.33;;;;;;;1.60;80.47;102403.97;4992055;28;20299;-72
2022/04/17 05:28:19;;;;;;;11.87;9.73;;;;;;;1.66;80.75;102417.94;4992020;28;20233;-71
2022/04/17 05:30:47;;;;;;;14.07;10.07;;;;;;;1.74;81.15;102423.22;4992153;28;20240;-70
2022/04/17 05:33:18;;;;;;;14.07;10.07;;;;;;;1.82;80.83;102424.09;4996124;28;20217;-70
2022/04/17 05:35:45;;;;;;;10.87;8.60;;;;;;;1.90;81.41;102421.50;5003059;28;20646;-70
2022/04/17 05:38:11;;;;;;;12.20;8.90;;;;;;;2.00;81.90;102416.22;5004726;28;20338;-69
2022/04/17 05:40:41;;;;;;;10.90;8.67;;;;;;;2.11;82.13;102405.72;5000406;28;20608;-69
2022/04/17 05:43:08;;;;;;;11.57;8.60;;;;;;;2.22;82.54;102413.59;5005483;28;20210;-69
2022/04/17 05:45:35;;;;;;;12.07;8.50;;;;;;;2.32;82.42;102410.09;5002259;28;20207;-70
2022/04/17 05:48:03;;;;;;;13.90;9.90;;;;;;;2.44;82.14;102420.59;5004342;28;20206;-69
2022/04/17 05:50:31;;;;;;;13.23;9.40;;;;;;;2.56;82.15;102431.06;4995626;28;20196;-68
2022/04/17 05:52:58;;;;;;;13.20;9.97;;;;;;;2.69;82.36;102430.16;4990696;28;20721;-70
2022/04/17 05:55:24;;;;;;;16.67;10.20;;;;;;;2.83;82.11;102429.25;4996000;28;20238;-70
2022/04/17 05:57:51;;;;;;;12.80;9.50;;;;;;;2.96;82.62;102431.84;5001942;28;20226;-70
2022/04/17 06:00:18;;;;;;;14.27;10.30;;;;;;;3.11;82.53;102436.16;5010529;28;20224;-70
2022/04/17 06:02:46;;;;;;;12.63;10.47;;;;;;;3.24;81.97;102431.72;4993170;28;20211;-70
2022/04/17 06:05:14;;;;;;;15.63;10.10;;;;;;;3.38;82.08;102425.53;4992940;28;20199;-70
2022/04/17 06:07:42;;;;;;;12.63;10.47;;;;;;;3.51;81.01;102422.81;4993234;28;20608;-69
2022/04/17 06:10:10;;;;;;;16.60;11.70;;;;;;;3.63;80.69;102425.34;4995539;28;20230;-71
2022/04/17 06:12:38;;;;;;;12.37;9.47;;;;;;;3.77;80.06;102432.28;4995124;28;20211;-70
2022/04/17 06:15:06;;;;;;;12.20;8.37;;;;;;;3.94;79.58;102429.50;5001189;28;20199;-70
2022/04/17 06:17:38;;;;;;;12.40;9.03;;;;;;;4.11;79.29;102430.28;5000636;28;20222;-70
2022/04/17 06:20:06;;;;;;;14.03;8.67;;;;;;;4.26;78.01;102428.41;5003859;28;20281;-70
2022/04/17 06:22:33;;;;;;;10.47;8.10;;;;;;;4.38;77.47;102428.28;5008333;28;20218;-70
2022/04/17 06:25:01;;;;;;;12.03;8.83;;;;;;;4.51;76.36;102428.13;5010864;28;20692;-70
2022/04/17 06:27:36;;;;;;;12.67;9.00;;;;;;;4.69;75.38;102428.84;5010503;28;20279;-70
2022/04/17 06:30:07;;;;;;;11.60;8.30;;;;;;;4.83;74.81;102419.03;5008121;28;20230;-70
2022/04/17 06:32:33;;;;;;;11.57;8.60;;;;;;;4.97;74.43;102416.22;4998124;28;20204;-70
2022/04/17 06:35:00;;;;;;;10.50;8.40;;;;;;;5.08;73.07;102424.88;5001675;28;20214;-71
2022/04/17 06:37:26;;;;;;;10.40;8.47;;;;;;;5.19;72.27;102421.22;4997727;28;20752;-70
2022/04/17 06:39:53;;;;;;;11.43;8.23;;;;;;;5.33;71.78;102422.78;4991425;28;20231;-69
2022/04/17 06:42:21;;;;;;;9.63;7.77;;;;;;;5.45;71.03;102422.63;4993886;28;20195;-71
2022/04/17 06:44:47;;;;;;;11.13;8.27;;;;;;;5.59;70.86;102420.66;4997246;28;20218;-69
2022/04/17 06:47:14;;;;;;;9.97;7.70;;;;;;;5.72;70.28;102418.72;4997316;28;20219;-71
2022/04/17 06:49:40;;;;;;;10.03;7.43;;;;;;;5.84;69.52;102424.69;5002743;28;20234;-70
2022/04/17 06:52:07;;;;;;;10.27;7.17;;;;;;;5.93;69.20;102427.19;5000716;28;20204;-70
2022/04/17 06:54:33;;;;;;;7.93;6.70;;;;;;;6.06;68.51;102433.19;4998454;28;20207;-70
2022/04/17 06:57:00;;;;;;;8.87;6.80;;;;;;;6.09;67.49;102427.81;4997958;28;20231;-71
2022/04/17 06:59:28;;;;;;;9.97;7.20;;;;;;;6.14;67.36;102433.91;5002655;28;20237;-71
2022/04/17 07:01:55;;;;;;;10.47;7.53;;;;;;;6.21;67.26;102425.00;5003446;28;20211;-69
2022/04/17 07:04:21;;;;;;;10.97;8.10;;;;;;;6.35;67.91;102421.22;4996980;28;20213;-71
2022/04/17 07:06:48;;;;;;;12.50;7.60;;;;;;;6.50;68.15;102428.88;5001124;28;20206;-71
2022/04/17 07:09:14;;;;;;;12.13;7.83;;;;;;;6.64;67.64;102426.84;5001965;28;20226;-71
2022/04/17 07:11:41;;;;;;;8.17;6.30;;;;;;;6.79;67.45;102420.41;4997062;28;20207;-71
2022/04/17 07:14:08;;;;;;;8.63;6.30;;;;;;;6.92;66.57;102422.78;4998020;28;20685;-71
2022/04/17 07:16:36;;;;;;;7.63;6.33;;;;;;;7.01;66.13;102420.84;4997653;28;20218;-71
2022/04/17 07:19:02;;;;;;;7.60;6.33;;;;;;;7.09;64.61;102414.50;5003471;28;20740;-71
2022/04/17 07:21:29;;;;;;;8.50;6.20;;;;;;;7.13;64.87;102417.97;5002735;28;20212;-70
2022/04/17 07:23:55;;;;;;;6.77;5.60;;;;;;;7.23;63.86;102408.91;4999528;28;20476;-71
2022/04/17 07:26:22;;;;;;;5.13;4.63;;;;;;;7.35;63.50;102415.69;5002382;28;20719;-71
2022/04/17 07:28:48;;;;;;;8.63;5.03;;;;;;;7.46;63.40;102398.66;5009105;28;20227;-70
2022/04/17 07:31:15;;;;;;;7.47;5.50;;;;;;;7.60;62.45;102404.53;4992646;28;20208;-71
2022/04/17 07:33:42;;;;;;;4.97;4.47;;;;;;;7.75;62.36;102399.75;4989164;28;20210;-70
2022/04/17 07:36:09;;;;;;;6.87;6.17;;;;;;;7.90;62.47;102399.38;4994873;28;20234;-70
2022/04/17 07:38:35;;;;;;;7.37;5.90;;;;;;;8.06;62.00;102410.53;4989877;28;20222;-71
2022/04/17 07:41:03;;;;;;;6.90;5.77;;;;;;;8.22;61.40;102407.44;5004263;28;20722;-71
2022/04/17 07:43:29;;;;;;;7.77;5.77;;;;;;;8.37;60.63;102405.31;5004066;28;20207;-71
2022/04/17 07:45:56;;;;;;;7.50;5.93;;;;;;;8.51;59.91;102408.47;5009617;28;20207;-71
2022/04/17 07:48:24;;;;;;;6.27;5.57;;;;;;;8.64;59.36;102408.09;4995476;28;20239;-71
2022/04/17 07:50:54;;;;;;;5.97;5.37;;;;;;;8.81;58.72;102404.09;5005880;28;20213;-71
2022/04/17 07:53:20;;;;;;;5.97;5.10;;;;;;;9.01;58.60;102410.59;5003020;28;20209;-71
2022/04/17 07:55:47;;;;;;;6.60;5.00;;;;;;;9.21;57.76;102406.50;5001466;28;20798;-71
2022/04/17 07:58:22;;;;;;;5.33;4.40;;;;;;;9.36;56.38;102406.03;5007041;28;20255;-71
2022/04/17 08:00:57;;;;;;;6.37;5.10;;;;;;;9.48;54.92;102405.66;5000791;28;20707;-71
2022/04/17 08:03:46;;;;;;;4.63;4.20;;;;;;;9.59;54.18;102400.88;4994866;28;20273;-71
2022/04/17 08:06:16;;;;;;;5.47;4.83;;;;;;;9.66;53.71;102402.44;4998826;28;20269;-71
2022/04/17 08:08:43;;;;;;;6.50;5.13;;;;;;;9.72;52.82;102394.22;4994912;28;20730;-71
2022/04/17 08:11:10;;;;;;;5.00;4.43;;;;;;;9.81;52.06;102397.53;5005031;28;20218;-71
2022/04/17 08:13:37;;;;;;;4.93;4.30;;;;;;;9.89;51.54;102393.69;4996019;28;20692;-71
2022/04/17 08:16:05;;;;;;;6.50;5.40;;;;;;;10.01;51.51;102389.78;4991707;28;20214;-71
2022/04/17 08:18:33;;;;;;;5.13;4.63;;;;;;;10.16;51.42;102394.56;4992635;28;21120;-71
2022/04/17 08:20:59;;;;;;;5.37;4.87;;;;;;;10.27;51.09;102392.44;4991209;28;20237;-71
2022/04/17 08:23:27;;;;;;;4.80;4.30;;;;;;;10.41;50.92;102383.97;4997651;28;20215;-71
2022/04/17 08:25:54;;;;;;;5.53;4.93;;;;;;;10.56;50.92;102377.25;4989975;28;20230;-71
2022/04/17 08:28:20;;;;;;;5.37;4.87;;;;;;;10.70;50.49;102369.63;4994184;28;20766;-71
2022/04/17 08:30:49;;;;;;;4.97;4.23;;;;;;;10.84;50.14;102372.63;5000918;28;20211;-71
2022/04/17 08:33:16;;;;;;;6.40;4.50;;;;;;;10.97;49.63;102365.91;5002031;28;20232;-71
2022/04/17 08:35:43;;;;;;;5.27;4.77;;;;;;;11.13;49.43;102355.53;5001141;28;20630;-71
2022/04/17 08:38:09;;;;;;;6.30;4.90;;;;;;;11.31;48.89;102359.28;5000385;28;20243;-71
2022/04/17 08:40:39;;;;;;;5.40;4.40;;;;;;;11.44;47.87;102360.56;5000736;28;20223;-71
2022/04/17 08:43:07;;;;;;;5.30;4.33;;;;;;;11.60;47.36;102356.34;4999370;28;20203;-71
2022/04/17 08:45:34;;;;;;;3.83;3.30;;;;;;;11.73;46.03;102346.03;4998574;28;20227;-71
2022/04/17 08:48:02;;;;;;;4.13;3.40;;;;;;;11.77;44.46;102348.53;5002089;28;20588;-72
2022/04/17 08:50:28;;;;;;;4.70;4.20;;;;;;;11.80;43.87;102345.75;5042023;23;20288;-70
2022/04/17 08:52:56;;;;;;;4.60;3.50;;;;;;;11.89;43.38;102344.47;4989508;28;20211;-70
2022/04/17 08:55:22;;;;;;;3.93;3.00;;;;;;;11.95;41.94;102354.91;4978686;28;20215;-72
2022/04/17 08:57:50;;;;;;;4.00;3.60;;;;;;;12.00;41.82;102346.72;4986066;28;20882;-69
2022/04/17 09:00:18;;;;;;;4.60;4.20;;;;;;;12.06;41.98;102336.63;4988031;28;20240;-69
2022/04/17 09:02:46;;;;;;;4.37;3.97;;;;;;;12.19;41.91;102336.97;4992864;28;20658;-70
2022/04/17 09:05:14;;;;;;;4.17;3.50;;;;;;;12.30;41.83;102332.03;4990232;28;20242;-69
2022/04/17 09:07:41;;;;;;;5.30;3.70;;;;;;;12.32;40.85;102326.63;4996284;28;20289;-70
2022/04/17 09:10:09;;;;;;;4.37;3.40;;;;;;;12.38;41.46;102327.22;4989800;28;20318;-70
2022/04/17 09:12:36;;;;;;;5.43;4.03;;;;;;;12.50;41.24;102323.13;4991337;28;20210;-69
2022/04/17 09:15:04;;;;;;;4.77;3.80;;;;;;;12.61;40.99;102330.66;4983891;28;20376;-71
2022/04/17 09:17:32;;;;;;;5.10;3.73;;;;;;;12.71;40.62;102315.97;4983205;28;20549;-70
2022/04/17 09:19:58;;;;;;;4.83;4.00;;;;;;;12.85;40.60;102318.88;4983932;28;20228;-70
2022/04/17 09:22:25;;;;;;;3.93;3.57;;;;;;;12.93;40.24;102308.66;4980899;28;20296;-69
2022/04/17 09:24:52;;;;;;;4.67;3.50;;;;;;;13.02;39.78;102310.03;4985438;28;20219;-70
2022/04/17 09:27:27;;;;;;;2.33;1.97;;;;;;;13.14;39.21;102299.63;4985791;28;20290;-69
2022/04/17 09:29:53;;;;;;;1.90;1.57;;;;;;;13.16;36.68;102297.78;4974967;28;20614;-70
2022/04/17 09:32:21;;;;;;;1.60;1.50;;;;;;;13.18;34.87;102298.56;4981627;28;20437;-69
2022/04/17 09:34:50;;;;;;;2.40;1.70;;;;;;;13.19;34.33;102297.63;4980300;28;20600;-69
2022/04/17 09:37:18;;;;;;;2.37;1.50;;;;;;;13.25;34.18;102295.63;4986549;28;20298;-70
2022/04/17 09:39:46;;;;;;;1.60;1.30;;;;;;;13.28;33.18;102292.75;4997304;28;20223;-69
2022/04/17 09:42:12;;;;;;;1.50;1.23;;;;;;;13.28;32.01;102288.28;4988668;28;20203;-70
2022/04/17 09:44:47;;;;;;;2.57;1.30;;;;;;;13.32;32.46;102295.22;4992557;28;20212;-69
2022/04/17 09:47:16;;;;;;;2.03;1.60;;;;;;;13.41;31.62;102288.56;4991229;28;20689;-69
2022/04/17 09:50:01;;;;;;;2.50;1.50;;;;;;;13.46;30.93;102292.72;4994630;28;20618;-70
2022/04/17 09:52:31;;;;;;;2.77;1.83;;;;;;;13.48;32.07;102284.63;4991945;28;20309;-70
2022/04/17 09:54:59;;;;;;;2.20;1.50;;;;;;;13.53;32.04;102277.25;4998515;28;20305;-69
2022/04/17 09:57:29;;;;;;;2.10;1.90;;;;;;;13.59;31.71;102271.59;4993063;28;20212;-70
2022/04/17 09:59:56;;;;;;;2.07;1.60;;;;;;;13.65;31.32;102265.03;4996230;28;20826;-70
2022/04/17 10:02:25;;;;;;;2.20;2.00;;;;;;;13.71;32.43;102260.25;4991400;28;20203;-70
2022/04/17 10:04:51;;;;;;;2.60;2.23;;;;;;;13.82;32.83;102247.19;4989953;28;20683;-70
2022/04/17 10:07:23;;;;;;;2.10;1.80;;;;;;;13.87;32.61;102254.97;4993380;28;20214;-71
2022/04/17 10:09:50;;;;;;;2.43;1.93;;;;;;;13.90;33.09;102257.50;4990767;28;20554;-70
2022/04/17 10:12:19;;;;;;;3.03;2.00;;;;;;;13.95;32.52;102246.56;4995745;28;20266;-70
2022/04/17 10:14:48;;;;;;;1.70;1.60;;;;;;;13.97;32.47;102245.53;4994568;28;20200;-70
2022/04/17 10:17:18;;;;;;;1.63;1.47;;;;;;;13.98;32.39;102241.03;4988475;28;20207;-71
2022/04/17 10:19:47;;;;;;;1.20;1.10;;;;;;;14.04;31.78;102235.34;4987457;28;20700;-70
2022/04/17 10:22:18;;;;;;;2.87;1.37;;;;;;;14.10;31.35;102235.91;4979731;28;20207;-70
2022/04/17 10:24:51;;;;;;;2.20;1.60;;;;;;;14.15;30.34;102227.63;4989090;28;20223;-70
2022/04/17 10:27:20;;;;;;;1.40;1.30;;;;;;;14.18;30.24;102227.44;4988573;28;20625;-69
2022/04/17 10:29:54;;;;;;;2.53;1.30;;;;;;;14.23;30.94;102217.34;5001977;28;20245;-70
2022/04/17 10:33:03;;;;;;;2.33;1.50;;;;;;;14.32;30.73;102216.00;4993784;28;20306;-70
2022/04/17 10:35:41;;;;;;;1.83;1.13;;;;;;;14.32;30.26;102211.50;4992658;28;20214;-70
2022/04/17 10:38:25;;;;;;;1.20;1.10;;;;;;;14.37;29.57;102212.09;4991451;28;20296;-71
2022/04/17 10:40:55;;;;;;;1.03;0.93;;;;;;;14.38;28.60;102207.59;4979196;28;20208;-71
2022/04/17 10:43:22;;;;;;;1.43;1.13;;;;;;;14.34;28.74;102203.34;4991215;28;20214;-71
2022/04/17 10:46:09;;;;;;;1.27;0.87;;;;;;;14.39;29.78;102199.50;4985788;28;20666;-69
2022/04/17 10:48:45;;;;;;;0.97;0.80;;;;;;;14.47;29.49;102197.28;4973820;28;20713;-72
2022/04/17 10:51:23;;;;;;;0.80;0.70;;;;;;;14.52;28.85;102187.16;4980560;28;20222;-71
2022/04/17 10:54:00;;;;;;;1.13;0.67;;;;;;;14.58;28.46;102178.78;4979411;28;20648;-72
2022/04/17 10:56:28;;;;;;;0.93;0.67;;;;;;;14.63;28.24;102175.00;4991368;28;20207;-72
2022/04/17 10:58:57;;;;;;;2.07;0.80;;;;;;;14.67;28.04;102173.88;4991588;28;20243;-71
2022/04/17 11:02:10;;;;;;;1.37;0.60;;;;;;;14.73;27.75;102168.16;4990496;28;20592;-72
2022/04/17 11:04:40;;;;;;;3.20;0.63;;;;;;;14.73;27.54;102171.69;4958951;28;20208;-72
2022/04/17 11:07:28;;;;;;;1.07;0.70;;;;;;;14.75;27.94;102163.56;4991164;28;20682;-71
2022/04/17 11:10:18;;;;;;;1.10;0.80;;;;;;;14.75;27.37;102159.06;4991394;28;20231;-72
2022/04/17 11:12:52;;;;;;;0.60;0.50;;;;;;;14.76;26.45;102158.13;4990331;28;20205;-72
2022/04/17 11:15:29;;;;;;;1.10;0.80;;;;;;;14.74;27.00;102156.47;4991572;28;20215;-72
2022/04/17 11:17:59;;;;;;;1.10;0.73;;;;;;;14.81;27.37;102144.44;4990822;28;20232;-72
2022/04/17 11:20:26;;;;;;;1.37;1.27;;;;;;;14.89;27.40;102144.84;4990861;28;20720;-72
2022/04/17 11:22:53;;;;;;;1.13;1.00;;;;;;;15.03;28.22;102136.03;4990347;28;20287;-72
2022/04/17 11:25:19;;;;;;;0.80;0.80;;;;;;;15.16;27.80;102137.91;4991081;28;20204;-72
2022/04/17 11:27:50;;;;;;;1.00;0.90;;;;;;;15.22;27.71;102142.91;4989927;28;20196;-72
2022/04/17 11:30:34;;;;;;;2.23;1.10;;;;;;;15.19;26.92;102140.41;4991591;28;20231;-72
2022/04/17 11:33:02;;;;;;;1.37;1.00;;;;;;;15.14;27.64;102134.44;4989826;28;20203;-72
2022/04/17 11:35:30;;;;;;;1.63;0.80;;;;;;;15.17;27.73;102134.25;4990581;28;20216;-72
2022/04/17 11:38:02;;;;;;;1.47;0.90;;;;;;;15.21;27.94;102125.09;4990482;28;20203;-72